Brownsville, OR (97327)

9:49 AM PST on February 08, 2016 (GMT -0800)
Powell Hills | | Change Station
CLOSE
Current Station
Personal Weather Station
Location: Shedd, OR
Elevation: 436 ft
Nearby Weather Stations
Active Advisory: Dense Fog Advisory Active Notice: Record Report

Elev 436 ft 44.41 °N, 123.03 °W | Updated 4 seconds ago

Overcast
Overcast
40.1 °F
Feels Like 40 °F
N
0.0
Wind Variable Wind from WSW
Gusts 3.0 mph

Today
High -- | Low -- °F
--% Chance of Precip.
Yesterday
High -- | Low -- °F
Precip. -- in
Pressure 30.42 in
Visibility 0.2 miles
Clouds Overcast 200 ft
Windchill 40 °F
Dew Point 40 °F
Humidity 100%
Rainfall 0.00 in
Snow Depth Not available.
7:22 AM 5:30 PM
New Moon, 0% visible
METAR KCVO 081735Z 00000KT M1/4SM OVC002 03/03 A3042 RMK AO1
Pressure 30.42 in
Visibility 0.2 miles
Clouds Overcast 200 ft
Windchill 40 °F
Dew Point 40 °F
Humidity 100%
Rainfall 0.00 in
Snow Depth Not available.
7:22 AM 5:30 PM
New Moon, 0% visible
METAR KCVO 081735Z 00000KT M1/4SM OVC002 03/03 A3042 RMK AO1

10-Day Weather Forecast

Almanac

Astronomy

Feb. 08, 2016 Rise Set
Actual Time
Civil Twilight
Nautical Twilight
Astronomical Twilight
Moon
Length of Visible Light
Length of Day
Tomorrow will be .
, % of the Moon is Illuminated

Today's Extremes

State Highs State Lows

Community

WunderPhotos

Upload Photos

1,891,476 photos uploaded!

WunderBlog® & News

Nearby

Air Quality

  Air Quality AQ Index Pollutant
Not available.

Snow Depth

Station Depth Elevation

Earthquake Activity

City Distance Mag. Time & Date
Minimum magnitude displayed is 2.5.

Coastal Water Temperatures

Place Temperature

Stations

Nearby Weather Stations

Station Location Temp. Windchill Dew Point Humidity Wind Precip. Elev Updated Type
                   

Watches & Warnings

Dense Fog Advisory
Issued: 7:54 AM PST Feb. 8, 2016 – National Weather Service

... Dense fog advisory in effect until noon PST today for the south
Willamette Valley...

The National Weather Service in Portland has issued a dense fog
advisory... which is in effect until noon PST today.

* Visibility: one quarter mile or less.

* Timing: through about noon.

* Locations include: Eugene... Springfield... Corvallis...
Albany... Lebanon.

* Impacts: will cause difficult driving conditions this morning.

Precautionary/preparedness actions...

A dense fog advisory means visibilities will frequently be
reduced to less than one quarter mile. If driving... slow down...
use your headlights... and leave plenty of distance ahead of you.



For additional weather information... visit our web site at
www.Weather.Gov/Portland